Time;durP1;ratioP1;P1;durP2;ratioP2;P2;SDS_P1;SDS_P2;PMS_P1;PMS_P2;Temp;Humidity;BMP_temperature;BMP_pressure;BME280_temperature;BME280_humidity;BME280_pressure;Samples;Min_cycle;Max_cycle;Signal;HPM_P1;HPM_P2
2022/08/13 00:00:35;;;;;;;9.93;5.70;;;;;;;;;;5000245;28;20549;-75
2022/08/13 00:03:12;;;;;;;16.00;5.10;;;;;;;;;;4986031;28;20054;-74
2022/08/13 00:06:01;;;;;;;10.85;4.80;;;;;;;;;;4990334;28;20054;-74
2022/08/13 00:08:27;;;;;;;7.80;4.63;;;;;;;;;;5005842;28;20499;-75
2022/08/13 00:10:54;;;;;;;14.20;4.82;;;;;;;;;;5003774;28;20053;-76
2022/08/13 00:13:24;;;;;;;13.98;4.68;;;;;;;;;;4996695;28;20125;-75
2022/08/13 00:16:09;;;;;;;9.55;4.90;;;;;;;;;;5004826;28;20054;-75
2022/08/13 00:18:37;;;;;;;9.68;4.20;;;;;;;;;;5006173;28;20108;-75
2022/08/13 00:21:07;;;;;;;12.35;4.30;;;;;;;;;;5005468;28;20050;-75
2022/08/13 00:23:36;;;;;;;5.78;4.15;;;;;;;;;;5004257;28;20584;-76
2022/08/13 00:26:25;;;;;;;8.18;4.32;;;;;;;;;;5020563;28;20061;-76
2022/08/13 00:29:00;;;;;;;7.88;4.28;;;;;;;;;;5017755;28;20605;-75
2022/08/13 00:31:27;;;;;;;6.60;3.92;;;;;;;;;;4988505;28;20081;-75
2022/08/13 00:33:54;;;;;;;7.30;4.20;;;;;;;;;;5005146;28;20057;-75
2022/08/13 00:36:23;;;;;;;7.05;4.63;;;;;;;;;;5003817;28;20049;-75
2022/08/13 00:39:06;;;;;;;6.72;4.20;;;;;;;;;;5005047;28;20081;-75
2022/08/13 00:41:39;;;;;;;7.95;4.40;;;;;;;;;;4992369;28;20699;-75
2022/08/13 00:44:25;;;;;;;5.53;3.85;;;;;;;;;;4986207;28;20077;-76
2022/08/13 00:48:41;;;;;;;9.27;3.72;;;;;;;;;;4990000;28;20070;-75
2022/08/13 00:49:47;;;;;;;6.20;3.90;;;;;;;;;;4989374;28;20277;-76
2022/08/13 00:52:30;;;;;;;5.90;3.60;;;;;;;;;;4989523;28;20069;-74
2022/08/13 00:55:02;;;;;;;6.55;3.92;;;;;;;;;;4989524;28;20055;-75
2022/08/13 00:57:29;;;;;;;6.28;3.90;;;;;;;;;;4988750;28;20053;-75
2022/08/13 00:59:55;;;;;;;8.20;3.90;;;;;;;;;;4988185;28;20053;-75
2022/08/13 01:02:22;;;;;;;9.65;4.53;;;;;;;;;;4988650;28;20188;-75
2022/08/13 01:04:58;;;;;;;5.65;3.95;;;;;;;;;;4989096;28;20057;-75
2022/08/13 01:07:24;;;;;;;8.07;4.30;;;;;;;;;;4989603;28;20128;-75
2022/08/13 01:10:12;;;;;;;5.25;3.40;;;;;;;;;;4989230;28;20056;-75
2022/08/13 01:12:45;;;;;;;9.30;3.42;;;;;;;;;;4994994;28;20603;-75
2022/08/13 01:15:13;;;;;;;5.80;3.55;;;;;;;;;;5005777;28;20058;-75
2022/08/13 01:17:40;;;;;;;10.32;3.70;;;;;;;;;;5008663;28;20104;-75
2022/08/13 01:20:20;;;;;;;9.48;3.53;;;;;;;;;;5008298;28;20133;-75
2022/08/13 01:22:59;;;;;;;9.27;4.35;;;;;;;;;;5007943;28;20521;-75
2022/08/13 01:25:27;;;;;;;12.50;3.92;;;;;;;;;;5008873;28;20085;-75
2022/08/13 01:27:54;;;;;;;12.55;3.80;;;;;;;;;;5007023;28;20058;-76
2022/08/13 01:30:21;;;;;;;6.35;4.22;;;;;;;;;;4990730;28;20046;-75
2022/08/13 01:32:48;;;;;;;7.22;3.88;;;;;;;;;;5008238;28;20053;-75
2022/08/13 01:35:25;;;;;;;7.88;4.22;;;;;;;;;;5009380;28;20046;-75
2022/08/13 01:37:57;;;;;;;7.18;4.18;;;;;;;;;;5020908;28;20049;-75
2022/08/13 01:40:30;;;;;;;6.85;4.50;;;;;;;;;;5012051;28;20315;-75
2022/08/13 01:42:58;;;;;;;7.93;3.90;;;;;;;;;;5010796;28;20052;-75
2022/08/13 01:45:44;;;;;;;7.63;4.43;;;;;;;;;;5010231;28;20052;-75
2022/08/13 01:51:06;;;;;;;7.63;4.20;;;;;;;;;;5007917;28;20049;-75
2022/08/13 01:53:51;;;;;;;6.07;4.10;;;;;;;;;;5007769;28;20064;-76
2022/08/13 01:56:21;;;;;;;10.02;4.22;;;;;;;;;;4986351;28;20081;-76
2022/08/13 01:58:52;;;;;;;7.53;3.70;;;;;;;;;;4967213;28;20047;-75
2022/08/13 02:01:34;;;;;;;5.45;3.88;;;;;;;;;;4976475;28;20258;-76
2022/08/13 02:04:10;;;;;;;6.30;3.63;;;;;;;;;;4969922;28;20066;-75
2022/08/13 02:06:39;;;;;;;6.53;3.95;;;;;;;;;;4971242;28;20051;-75
2022/08/13 02:09:08;;;;;;;8.52;4.30;;;;;;;;;;4969135;28;20300;-75
2022/08/13 02:11:55;;;;;;;8.57;4.57;;;;;;;;;;4989644;28;20161;-75
2022/08/13 02:14:22;;;;;;;6.50;4.15;;;;;;;;;;4998042;28;20137;-76
2022/08/13 02:16:49;;;;;;;10.43;3.88;;;;;;;;;;5008866;28;20488;-75
2022/08/13 02:19:19;;;;;;;10.57;3.80;;;;;;;;;;5007428;28;20057;-75
2022/08/13 02:21:57;;;;;;;7.18;4.10;;;;;;;;;;5008736;28;20052;-75
2022/08/13 02:24:27;;;;;;;9.65;3.92;;;;;;;;;;5006846;28;20053;-76
2022/08/13 02:26:54;;;;;;;8.45;4.00;;;;;;;;;;5008017;28;20050;-76
2022/08/13 02:29:22;;;;;;;5.70;3.70;;;;;;;;;;5006698;28;20058;-75
2022/08/13 02:31:50;;;;;;;5.50;4.32;;;;;;;;;;5008186;28;20086;-76
2022/08/13 02:34:38;;;;;;;6.90;4.90;;;;;;;;;;5007354;28;20115;-75
2022/08/13 02:37:05;;;;;;;7.63;4.65;;;;;;;;;;5009252;28;20080;-76
2022/08/13 02:39:52;;;;;;;8.65;4.35;;;;;;;;;;5010095;28;20141;-75
2022/08/13 02:42:19;;;;;;;5.07;4.30;;;;;;;;;;5010397;28;20540;-75
2022/08/13 02:44:47;;;;;;;8.38;4.20;;;;;;;;;;5010680;28;20046;-75
2022/08/13 02:47:16;;;;;;;11.18;4.35;;;;;;;;;;5010045;28;20046;-75
2022/08/13 02:49:43;;;;;;;6.40;4.15;;;;;;;;;;5011184;28;20108;-75
2022/08/13 02:52:12;;;;;;;9.70;4.43;;;;;;;;;;5010459;28;20137;-76
2022/08/13 02:54:40;;;;;;;7.68;4.07;;;;;;;;;;5011280;28;20077;-76
2022/08/13 02:57:22;;;;;;;7.93;5.22;;;;;;;;;;5010878;28;20569;-76
2022/08/13 02:59:49;;;;;;;8.40;4.38;;;;;;;;;;5010228;28;20569;-76
2022/08/13 03:02:34;;;;;;;8.68;4.00;;;;;;;;;;5011979;28;20084;-76
2022/08/13 03:05:05;;;;;;;9.95;4.30;;;;;;;;;;4994981;28;20132;-76
2022/08/13 03:07:32;;;;;;;7.93;4.97;;;;;;;;;;5010544;28;20077;-76
2022/08/13 03:10:19;;;;;;;9.55;4.68;;;;;;;;;;5007176;28;20049;-77
2022/08/13 03:13:07;;;;;;;7.95;4.78;;;;;;;;;;4998252;28;20064;-74
2022/08/13 03:15:35;;;;;;;7.10;4.93;;;;;;;;;;4991323;28;20063;-76
2022/08/13 03:18:20;;;;;;;13.43;5.45;;;;;;;;;;4990980;28;20050;-76
2022/08/13 03:20:51;;;;;;;10.35;4.72;;;;;;;;;;4990495;28;20093;-76
2022/08/13 03:23:17;;;;;;;12.43;4.80;;;;;;;;;;4989890;28;20057;-75
2022/08/13 03:25:51;;;;;;;11.65;5.18;;;;;;;;;;4990735;28;20528;-74
2022/08/13 03:28:17;;;;;;;7.95;4.97;;;;;;;;;;4972374;28;20187;-77
2022/08/13 03:30:46;;;;;;;7.82;4.90;;;;;;;;;;4990051;28;20100;-76
2022/08/13 03:33:21;;;;;;;7.25;4.82;;;;;;;;;;4990597;28;20073;-75
2022/08/13 03:35:47;;;;;;;10.02;4.95;;;;;;;;;;4990600;28;20065;-75
2022/08/13 03:38:15;;;;;;;9.05;5.60;;;;;;;;;;4990143;28;20464;-75
2022/08/13 03:43:27;;;;;;;7.88;5.25;;;;;;;;;;4992211;28;20050;-75
2022/08/13 03:45:54;;;;;;;8.68;5.38;;;;;;;;;;5002824;28;20081;-74
2022/08/13 03:48:22;;;;;;;10.57;5.45;;;;;;;;;;5002006;28;20238;-76
2022/08/13 03:50:49;;;;;;;6.72;5.20;;;;;;;;;;4989987;28;20510;-75
2022/08/13 03:53:21;;;;;;;8.73;5.20;;;;;;;;;;4989983;28;20062;-76
2022/08/13 03:56:08;;;;;;;7.45;5.00;;;;;;;;;;4989551;28;20051;-76
2022/08/13 03:58:38;;;;;;;11.82;5.50;;;;;;;;;;4972725;28;20545;-76
2022/08/13 04:01:05;;;;;;;6.85;4.72;;;;;;;;;;4985571;28;20051;-75
2022/08/13 04:03:37;;;;;;;8.38;5.60;;;;;;;;;;4990069;28;20129;-75
2022/08/13 04:06:06;;;;;;;7.38;5.90;;;;;;;;;;4989374;28;20081;-76
2022/08/13 04:08:34;;;;;;;11.05;6.10;;;;;;;;;;4970250;28;20084;-75
2022/08/13 04:11:06;;;;;;;8.48;6.20;;;;;;;;;;4988964;28;20442;-75
2022/08/13 04:13:38;;;;;;;8.90;5.45;;;;;;;;;;4990295;28;20049;-75
2022/08/13 04:16:25;;;;;;;7.47;5.22;;;;;;;;;;4975337;28;20389;-75
2022/08/13 04:18:58;;;;;;;6.25;4.80;;;;;;;;;;4989279;28;20486;-75
2022/08/13 04:21:28;;;;;;;9.02;5.28;;;;;;;;;;4987705;28;20054;-75
2022/08/13 04:23:57;;;;;;;7.32;4.50;;;;;;;;;;4991923;28;20093;-76
2022/08/13 04:26:25;;;;;;;7.85;4.88;;;;;;;;;;4990122;28;20580;-75
2022/08/13 04:28:59;;;;;;;6.30;4.97;;;;;;;;;;4989610;28;20462;-76
2022/08/13 04:31:26;;;;;;;6.43;4.72;;;;;;;;;;4988987;28;20503;-76
2022/08/13 04:34:13;;;;;;;7.03;5.05;;;;;;;;;;4974937;28;20398;-76
2022/08/13 04:37:01;;;;;;;6.10;4.88;;;;;;;;;;4990676;28;20050;-76
2022/08/13 04:39:29;;;;;;;9.30;4.82;;;;;;;;;;4990146;28;20396;-75
2022/08/13 04:42:16;;;;;;;6.50;4.78;;;;;;;;;;4989456;28;20065;-76
2022/08/13 04:45:03;;;;;;;6.72;5.13;;;;;;;;;;4989006;28;20094;-73
2022/08/13 04:47:37;;;;;;;7.55;5.13;;;;;;;;;;4990078;28;20046;-76
2022/08/13 04:50:06;;;;;;;6.78;4.93;;;;;;;;;;4967559;28;20061;-74
2022/08/13 04:52:36;;;;;;;9.13;5.20;;;;;;;;;;5008485;28;20085;-75
2022/08/13 04:55:04;;;;;;;6.55;5.38;;;;;;;;;;5011190;28;20049;-76
2022/08/13 04:57:41;;;;;;;8.67;5.57;;;;;;;;;;5002825;28;20408;-76
2022/08/13 05:00:25;;;;;;;9.23;5.50;;;;;;;;;;4989347;28;20137;-75
2022/08/13 05:02:55;;;;;;;9.95;6.43;;;;;;;;;;4987452;28;20570;-74
2022/08/13 05:05:24;;;;;;;11.98;6.30;;;;;;;;;;4989483;28;20121;-75
2022/08/13 05:07:52;;;;;;;8.25;6.75;;;;;;;;;;4989701;28;20088;-74
2022/08/13 05:10:19;;;;;;;10.80;6.53;;;;;;;;;;4989795;28;20050;-73
2022/08/13 05:12:57;;;;;;;7.30;5.88;;;;;;;;;;4996462;28;20133;-75
2022/08/13 05:15:27;;;;;;;6.45;5.75;;;;;;;;;;5008683;28;20053;-74
2022/08/13 05:18:08;;;;;;;10.10;6.32;;;;;;;;;;5008959;28;20056;-75
2022/08/13 05:20:48;;;;;;;7.22;5.70;;;;;;;;;;5008514;28;20049;-74
2022/08/13 05:23:18;;;;;;;8.77;5.68;;;;;;;;;;4994402;28;20130;-76
2022/08/13 05:26:05;;;;;;;12.30;6.30;;;;;;;;;;4988575;28;20630;-75
2022/08/13 05:28:52;;;;;;;9.02;6.00;;;;;;;;;;4988813;28;20357;-74
2022/08/13 05:31:18;;;;;;;10.95;5.65;;;;;;;;;;4988400;28;20081;-74
2022/08/13 05:33:48;;;;;;;11.32;5.47;;;;;;;;;;4988868;28;20136;-74
2022/08/13 05:36:31;;;;;;;10.75;5.68;;;;;;;;;;4989139;28;20046;-75
2022/08/13 05:39:17;;;;;;;7.18;4.88;;;;;;;;;;4986777;28;20050;-74
2022/08/13 05:41:47;;;;;;;11.10;5.65;;;;;;;;;;4988250;28;20050;-74
2022/08/13 05:44:34;;;;;;;5.82;4.75;;;;;;;;;;4989113;28;20054;-74
2022/08/13 05:47:04;;;;;;;9.65;5.30;;;;;;;;;;4989205;28;20062;-74
2022/08/13 05:49:33;;;;;;;7.78;5.65;;;;;;;;;;5003274;28;20081;-76
2022/08/13 05:52:19;;;;;;;9.88;5.20;;;;;;;;;;4988166;28;20419;-76
2022/08/13 05:55:06;;;;;;;6.30;4.82;;;;;;;;;;4988402;28;20631;-76
2022/08/13 05:57:53;;;;;;;8.65;4.78;;;;;;;;;;4987363;28;20050;-76
2022/08/13 06:06:11;;;;;;;6.60;4.30;;;;;;;;;;4988839;28;20145;-78
2022/08/13 06:08:43;;;;;;;9.90;4.05;;;;;;;;;;4985583;28;20414;-76
2022/08/13 06:11:15;;;;;;;8.43;4.60;;;;;;;;;;4988533;28;20054;-77
2022/08/13 06:13:49;;;;;;;9.68;4.40;;;;;;;;;;5001113;28;20050;-75
2022/08/13 06:16:32;;;;;;;13.35;4.47;;;;;;;;;;5012387;28;20046;-77
2022/08/13 06:19:24;;;;;;;18.05;4.60;;;;;;;;;;4997136;28;20049;-77
2022/08/13 06:21:57;;;;;;;12.02;4.30;;;;;;;;;;4994906;28;20046;-77
2022/08/13 06:24:27;;;;;;;16.80;4.40;;;;;;;;;;5011068;28;20042;-74
2022/08/13 06:26:55;;;;;;;9.15;3.80;;;;;;;;;;5012050;28;20056;-77
2022/08/13 06:29:22;;;;;;;6.60;4.30;;;;;;;;;;4993033;28;20470;-77
2022/08/13 06:31:55;;;;;;;9.27;3.83;;;;;;;;;;4992300;28;20080;-76
2022/08/13 06:34:24;;;;;;;9.25;4.03;;;;;;;;;;4970748;28;20057;-75
2022/08/13 06:37:05;;;;;;;11.32;3.88;;;;;;;;;;4987611;28;20458;-75
2022/08/13 06:39:35;;;;;;;7.93;3.55;;;;;;;;;;5002639;28;20064;-75
2022/08/13 06:42:04;;;;;;;7.03;3.22;;;;;;;;;;5001900;28;20068;-76
2022/08/13 06:44:33;;;;;;;7.35;2.90;;;;;;;;;;4989236;28;20053;-76
2022/08/13 06:47:03;;;;;;;10.13;3.60;;;;;;;;;;5007754;28;20054;-76
2022/08/13 06:49:31;;;;;;;5.95;3.13;;;;;;;;;;5003885;28;20050;-74
2022/08/13 06:52:18;;;;;;;14.63;3.17;;;;;;;;;;4991077;28;20080;-75
2022/08/13 06:54:44;;;;;;;13.40;3.17;;;;;;;;;;4989059;28;20129;-76
2022/08/13 06:57:16;;;;;;;10.80;2.70;;;;;;;;;;5001023;28;20050;-75
2022/08/13 06:59:52;;;;;;;8.57;2.83;;;;;;;;;;5008555;28;20574;-76
2022/08/13 07:02:40;;;;;;;6.68;2.53;;;;;;;;;;5011471;28;20054;-77
2022/08/13 07:05:09;;;;;;;8.48;2.90;;;;;;;;;;4994123;28;20042;-76
2022/08/13 07:07:45;;;;;;;10.98;2.95;;;;;;;;;;5002075;28;20050;-76
2022/08/13 07:10:13;;;;;;;7.43;2.92;;;;;;;;;;4997755;28;20108;-76
2022/08/13 07:12:42;;;;;;;4.43;2.65;;;;;;;;;;4987789;28;20466;-76
2022/08/13 07:15:17;;;;;;;6.45;2.38;;;;;;;;;;4996553;28;20038;-77
2022/08/13 07:18:05;;;;;;;6.15;2.58;;;;;;;;;;5008352;28;20112;-76
2022/08/13 07:20:31;;;;;;;7.57;2.35;;;;;;;;;;4993738;28;20141;-75
2022/08/13 07:22:58;;;;;;;6.45;2.40;;;;;;;;;;4991443;28;20537;-76
2022/08/13 07:25:45;;;;;;;6.93;2.53;;;;;;;;;;4995900;28;20050;-76
2022/08/13 07:28:25;;;;;;;7.13;2.42;;;;;;;;;;4988419;28;20054;-76
2022/08/13 07:31:13;;;;;;;4.75;2.97;;;;;;;;;;4990232;28;20050;-76
2022/08/13 07:33:42;;;;;;;3.58;2.63;;;;;;;;;;4990824;28;20133;-76
2022/08/13 07:36:24;;;;;;;6.22;2.83;;;;;;;;;;4976006;28;20050;-76
2022/08/13 07:38:52;;;;;;;5.65;3.03;;;;;;;;;;4991668;28;20046;-75
2022/08/13 07:41:20;;;;;;;7.18;2.95;;;;;;;;;;4990437;28;20161;-75
2022/08/13 07:43:47;;;;;;;5.72;2.70;;;;;;;;;;4991113;28;20050;-76
2022/08/13 07:46:34;;;;;;;5.72;2.90;;;;;;;;;;4991561;28;20062;-77
2022/08/13 07:49:00;;;;;;;4.68;2.90;;;;;;;;;;4991669;28;20132;-76
2022/08/13 07:51:30;;;;;;;5.72;3.00;;;;;;;;;;4990769;28;20051;-77
2022/08/13 07:54:03;;;;;;;11.15;3.00;;;;;;;;;;4991400;28;20120;-78
2022/08/13 07:56:35;;;;;;;13.27;3.10;;;;;;;;;;4992453;28;20050;-78
2022/08/13 07:59:06;;;;;;;8.80;3.03;;;;;;;;;;4991742;28;20050;-77
2022/08/13 08:01:34;;;;;;;7.85;3.08;;;;;;;;;;4971595;28;20138;-77
2022/08/13 08:04:21;;;;;;;7.63;2.92;;;;;;;;;;4992003;28;20051;-77
2022/08/13 08:06:55;;;;;;;6.05;3.05;;;;;;;;;;4991640;28;20060;-78
2022/08/13 08:09:24;;;;;;;6.47;2.50;;;;;;;;;;4991670;28;20138;-78
2022/08/13 08:14:41;;;;;;;9.27;3.10;;;;;;;;;;4989234;28;20054;-77
2022/08/13 08:17:21;;;;;;;8.50;2.85;;;;;;;;;;4971275;28;20275;-77
2022/08/13 08:20:08;;;;;;;5.28;2.85;;;;;;;;;;4990527;28;20113;-79
2022/08/13 08:22:55;;;;;;;7.95;3.30;;;;;;;;;;4989477;28;20066;-76
2022/08/13 08:25:24;;;;;;;8.45;3.10;;;;;;;;;;4990474;28;20064;-79
2022/08/13 08:27:51;;;;;;;6.20;3.42;;;;;;;;;;4991143;28;20503;-76
2022/08/13 08:30:38;;;;;;;4.65;3.38;;;;;;;;;;4993641;28;20053;-77
2022/08/13 08:33:18;;;;;;;9.80;3.65;;;;;;;;;;4973918;28;20057;-76
2022/08/13 08:36:04;;;;;;;7.78;3.90;;;;;;;;;;4988740;28;20049;-76
2022/08/13 08:44:32;;;;;;;;;;;;;;;;;;4988698;28;20129;-76
2022/08/13 08:47:01;;;;;;;6.38;4.07;;;;;;;;;;4987179;28;19922;-76
2022/08/13 08:49:34;;;;;;;;;;;;;;;;;;4988328;28;20458;-75
2022/08/13 08:52:09;;;;;;;5.10;4.10;;;;;;;;;;4988471;28;19928;-77
2022/08/13 08:54:38;;;;;;;8.60;4.38;;;;;;;;;;4991811;28;20050;-78
2022/08/13 08:57:05;;;;;;;8.88;4.35;;;;;;;;;;4994051;28;20046;-78
2022/08/13 08:59:35;;;;;;;9.43;4.13;;;;;;;;;;4991131;28;20125;-77
2022/08/13 09:02:18;;;;;;;10.82;4.28;;;;;;;;;;4990193;28;20054;-77
2022/08/13 09:04:54;;;;;;;11.07;4.38;;;;;;;;;;4992011;28;20033;-77
2022/08/13 09:07:26;;;;;;;16.10;4.53;;;;;;;;;;4992325;28;20046;-77
2022/08/13 09:09:58;;;;;;;5.40;4.10;;;;;;;;;;4992484;28;20057;-76
2022/08/13 09:12:26;;;;;;;9.35;4.43;;;;;;;;;;4990246;28;20093;-76
2022/08/13 09:14:56;;;;;;;12.68;4.32;;;;;;;;;;4988708;28;20050;-77
2022/08/13 09:17:23;;;;;;;25.30;5.45;;;;;;;;;;4969893;28;20046;-76
2022/08/13 09:20:02;;;;;;;26.88;5.70;;;;;;;;;;4986657;28;20134;-77
2022/08/13 09:22:33;;;;;;;19.35;5.50;;;;;;;;;;4986551;28;20046;-77
2022/08/13 09:24:59;;;;;;;17.25;5.30;;;;;;;;;;4986764;28;20149;-76
2022/08/13 09:27:28;;;;;;;13.85;5.35;;;;;;;;;;4986894;28;20047;-76
2022/08/13 09:30:16;;;;;;;12.40;5.80;;;;;;;;;;4985342;28;20076;-77
2022/08/13 09:32:52;;;;;;;15.90;5.47;;;;;;;;;;4984572;28;20137;-77
2022/08/13 09:35:22;;;;;;;15.35;5.45;;;;;;;;;;4986557;28;20050;-77
2022/08/13 09:37:50;;;;;;;9.57;5.45;;;;;;;;;;4986585;28;20104;-76
2022/08/13 09:40:23;;;;;;;8.95;5.43;;;;;;;;;;4989381;28;20050;-76
2022/08/13 09:43:21;;;;;;;12.93;5.32;;;;;;;;;;4987489;28;20073;-76
2022/08/13 09:46:08;;;;;;;10.63;5.78;;;;;;;;;;4988975;28;20061;-77
2022/08/13 09:48:35;;;;;;;8.63;5.85;;;;;;;;;;4990688;28;20065;-76
2022/08/13 09:51:09;;;;;;;10.93;5.28;;;;;;;;;;4975275;28;20058;-76
2022/08/13 09:53:56;;;;;;;7.18;5.53;;;;;;;;;;4993038;28;20050;-76
2022/08/13 09:56:22;;;;;;;10.38;6.20;;;;;;;;;;4992231;28;20503;-77
2022/08/13 09:58:52;;;;;;;8.13;6.63;;;;;;;;;;4976106;28;20420;-76
2022/08/13 10:01:21;;;;;;;8.35;6.03;;;;;;;;;;4991777;28;20046;-77
2022/08/13 10:04:08;;;;;;;11.98;6.13;;;;;;;;;;4992786;28;20053;-76
2022/08/13 10:06:38;;;;;;;8.15;5.32;;;;;;;;;;4992547;28;20054;-77
2022/08/13 10:09:21;;;;;;;9.30;5.72;;;;;;;;;;4992989;28;20263;-76
2022/08/13 10:11:52;;;;;;;10.48;5.85;;;;;;;;;;4998093;28;20072;-77
2022/08/13 10:14:38;;;;;;;11.70;6.30;;;;;;;;;;4997733;28;20140;-76
2022/08/13 10:17:20;;;;;;;11.20;6.55;;;;;;;;;;4996708;28;20050;-77
2022/08/13 10:19:47;;;;;;;7.35;5.85;;;;;;;;;;4995141;28;20046;-76
2022/08/13 10:22:15;;;;;;;7.85;6.22;;;;;;;;;;5013800;28;20162;-77
2022/08/13 10:24:49;;;;;;;14.85;5.97;;;;;;;;;;5009039;28;20038;-76
2022/08/13 10:27:15;;;;;;;9.45;6.25;;;;;;;;;;5004880;28;20046;-76
2022/08/13 10:29:42;;;;;;;8.80;6.07;;;;;;;;;;4992735;28;20435;-77
2022/08/13 10:32:28;;;;;;;9.05;6.43;;;;;;;;;;4991683;28;20062;-76
2022/08/13 10:35:02;;;;;;;8.88;6.15;;;;;;;;;;4993089;28;20070;-76
2022/08/13 10:37:29;;;;;;;7.93;6.97;;;;;;;;;;4992133;28;20061;-77
2022/08/13 10:39:58;;;;;;;24.33;7.57;;;;;;;;;;4992565;28;20062;-77
2022/08/13 10:42:25;;;;;;;21.77;8.73;;;;;;;;;;4991030;28;20058;-78
2022/08/13 10:44:52;;;;;;;18.83;8.77;;;;;;;;;;4991890;28;20074;-79
2022/08/13 10:47:19;;;;;;;12.70;8.43;;;;;;;;;;4992553;28;20133;-76
2022/08/13 10:50:03;;;;;;;15.15;9.32;;;;;;;;;;4992634;28;20046;-76
2022/08/13 10:52:29;;;;;;;13.95;9.23;;;;;;;;;;4989602;28;20077;-79
2022/08/13 10:55:11;;;;;;;12.15;9.27;;;;;;;;;;4992750;28;20511;-77
2022/08/13 10:57:39;;;;;;;14.82;9.90;;;;;;;;;;4991155;28;20570;-79
2022/08/13 11:00:25;;;;;;;14.18;10.77;;;;;;;;;;4990810;28;20499;-77
2022/08/13 11:02:54;;;;;;;12.52;10.48;;;;;;;;;;4988648;28;20050;-77
2022/08/13 11:05:25;;;;;;;18.75;11.32;;;;;;;;;;4974804;28;20050;-77
2022/08/13 11:07:53;;;;;;;17.17;11.02;;;;;;;;;;4990993;28;20096;-77
2022/08/13 11:10:21;;;;;;;16.08;11.35;;;;;;;;;;4991575;28;20057;-77
2022/08/13 11:12:51;;;;;;;16.15;12.27;;;;;;;;;;4997710;28;20137;-76
2022/08/13 11:15:27;;;;;;;18.40;12.35;;;;;;;;;;5024808;28;20582;-76
2022/08/13 11:17:56;;;;;;;15.00;11.80;;;;;;;;;;5011300;28;20046;-77
2022/08/13 11:20:27;;;;;;;15.05;11.45;;;;;;;;;;5010091;28;20050;-77
2022/08/13 11:22:55;;;;;;;14.82;10.80;;;;;;;;;;5010257;28;20085;-76
2022/08/13 11:25:24;;;;;;;12.63;10.38;;;;;;;;;;4993922;28;20050;-77
2022/08/13 11:28:12;;;;;;;11.43;10.00;;;;;;;;;;4995208;28;20050;-77
2022/08/13 11:30:44;;;;;;;15.60;10.10;;;;;;;;;;5009861;28;20104;-77
2022/08/13 11:33:15;;;;;;;12.00;9.95;;;;;;;;;;5010670;28;20602;-77
2022/08/13 11:35:42;;;;;;;12.18;9.13;;;;;;;;;;5010975;28;20050;-77
2022/08/13 11:38:15;;;;;;;13.95;9.55;;;;;;;;;;5010510;28;20057;-76
2022/08/13 11:40:47;;;;;;;11.23;8.80;;;;;;;;;;5010755;28;20408;-76
2022/08/13 11:43:18;;;;;;;;;;;;;;;;;;5009608;28;20118;-76
2022/08/13 11:45:45;;;;;;;11.95;8.07;;;;;;;;;;5010871;28;19960;-77
2022/08/13 11:48:14;;;;;;;15.65;7.68;;;;;;;;;;5010619;28;20050;-77
2022/08/13 11:50:45;;;;;;;9.80;7.57;;;;;;;;;;5010209;28;20065;-77
2022/08/13 11:53:12;;;;;;;12.25;8.18;;;;;;;;;;5010007;28;20141;-77
2022/08/13 11:55:45;;;;;;;13.88;8.32;;;;;;;;;;5010367;28;20479;-76
2022/08/13 11:58:27;;;;;;;11.48;7.38;;;;;;;;;;5009893;28;20054;-76
2022/08/13 12:01:18;;;;;;;10.98;7.20;;;;;;;;;;5012741;28;20050;-76
2022/08/13 12:03:50;;;;;;;8.20;7.30;;;;;;;;;;4997652;28;20509;-78
2022/08/13 12:06:36;;;;;;;9.25;6.78;;;;;;;;;;4991361;28;20050;-76
2022/08/13 12:09:04;;;;;;;10.57;7.20;;;;;;;;;;4990091;28;20134;-77
2022/08/13 12:11:50;;;;;;;12.90;6.90;;;;;;;;;;4996054;28;20052;-77
2022/08/13 12:14:36;;;;;;;12.45;7.35;;;;;;;;;;4995678;28;20409;-78
2022/08/13 12:17:03;;;;;;;10.77;7.65;;;;;;;;;;5011047;28;20146;-76
2022/08/13 12:19:30;;;;;;;8.75;7.25;;;;;;;;;;5009680;28;20049;-77
2022/08/13 12:21:57;;;;;;;10.90;7.07;;;;;;;;;;5009727;28;20046;-77
2022/08/13 12:24:24;;;;;;;9.95;7.00;;;;;;;;;;5001096;28;20074;-77
2022/08/13 12:26:59;;;;;;;10.20;7.70;;;;;;;;;;4992370;28;20046;-77
2022/08/13 12:29:28;;;;;;;11.35;7.63;;;;;;;;;;4991463;28;20454;-78
2022/08/13 12:32:08;;;;;;;13.25;8.30;;;;;;;;;;4992968;28;20061;-75
2022/08/13 12:34:40;;;;;;;10.13;7.60;;;;;;;;;;4993058;28;20065;-78
2022/08/13 12:37:07;;;;;;;11.05;7.70;;;;;;;;;;4995847;28;20602;-77
2022/08/13 12:39:49;;;;;;;14.05;8.40;;;;;;;;;;4993569;28;20049;-77
2022/08/13 12:42:17;;;;;;;9.48;7.93;;;;;;;;;;4993040;28;20057;-77
2022/08/13 12:44:46;;;;;;;9.93;8.45;;;;;;;;;;4995610;28;20340;-77
2022/08/13 12:47:33;;;;;;;11.18;8.05;;;;;;;;;;4989762;28;20050;-77
2022/08/13 12:49:59;;;;;;;12.77;8.05;;;;;;;;;;4990146;28;20104;-77
2022/08/13 12:52:31;;;;;;;10.73;7.90;;;;;;;;;;4990542;28;20065;-77
2022/08/13 12:55:00;;;;;;;11.43;8.18;;;;;;;;;;4990070;28;20054;-76
2022/08/13 12:57:40;;;;;;;13.95;7.65;;;;;;;;;;4987376;28;20046;-77
2022/08/13 13:00:26;;;;;;;11.88;7.72;;;;;;;;;;4989321;28;20050;-77
2022/08/13 13:02:57;;;;;;;10.25;7.03;;;;;;;;;;4986580;28;20050;-77
2022/08/13 13:05:24;;;;;;;11.32;7.53;;;;;;;;;;4989367;28;20518;-78
2022/08/13 13:07:52;;;;;;;10.30;7.53;;;;;;;;;;4989017;28;20122;-76
2022/08/13 13:10:38;;;;;;;10.45;7.55;;;;;;;;;;4989635;28;20082;-77
2022/08/13 13:13:12;;;;;;;11.13;7.40;;;;;;;;;;4997270;28;20054;-77
2022/08/13 13:15:59;;;;;;;11.88;7.53;;;;;;;;;;5009412;28;20070;-77
2022/08/13 13:18:45;;;;;;;11.20;8.10;;;;;;;;;;5008509;28;20049;-77
2022/08/13 13:21:19;;;;;;;11.15;7.40;;;;;;;;;;4979183;28;20490;-76
2022/08/13 13:23:52;;;;;;;13.43;7.85;;;;;;;;;;4989285;28;20061;-77
2022/08/13 13:26:27;;;;;;;12.38;8.65;;;;;;;;;;4987964;28;20046;-77
2022/08/13 13:28:54;;;;;;;10.52;7.43;;;;;;;;;;4988551;28;20065;-77
2022/08/13 13:31:21;;;;;;;10.55;8.20;;;;;;;;;;4988603;28;20455;-77
2022/08/13 13:34:07;;;;;;;13.30;7.85;;;;;;;;;;4989550;28;20051;-77
2022/08/13 13:36:34;;;;;;;12.75;7.95;;;;;;;;;;4985743;28;20491;-77
2022/08/13 13:39:00;;;;;;;12.85;7.97;;;;;;;;;;4989088;28;20149;-77
2022/08/13 13:41:28;;;;;;;11.40;7.45;;;;;;;;;;4995826;28;20057;-76
2022/08/13 13:44:14;;;;;;;9.90;8.07;;;;;;;;;;4997542;28;20042;-77
2022/08/13 13:47:01;;;;;;;15.82;7.90;;;;;;;;;;4990586;28;20422;-76
2022/08/13 13:49:28;;;;;;;10.73;7.57;;;;;;;;;;4988883;28;20057;-77
2022/08/13 13:51:56;;;;;;;14.77;7.07;;;;;;;;;;4989786;28;20471;-77
2022/08/13 13:54:22;;;;;;;11.50;6.97;;;;;;;;;;4989937;28;20577;-77
2022/08/13 13:56:51;;;;;;;15.50;7.70;;;;;;;;;;4988909;28;20065;-78
2022/08/13 13:59:18;;;;;;;11.55;6.82;;;;;;;;;;4993238;28;20072;-78
2022/08/13 14:02:02;;;;;;;9.40;6.63;;;;;;;;;;4989780;28;20089;-78
2022/08/13 14:04:33;;;;;;;8.13;6.43;;;;;;;;;;4989129;28;20046;-78
2022/08/13 14:07:20;;;;;;;10.88;6.85;;;;;;;;;;4990051;28;20061;-79
2022/08/13 14:10:06;;;;;;;9.73;6.70;;;;;;;;;;4990399;28;20459;-78
2022/08/13 14:12:40;;;;;;;10.43;7.03;;;;;;;;;;4995504;28;20265;-76
2022/08/13 14:15:33;;;;;;;12.45;7.50;;;;;;;;;;4988426;28;20137;-75
2022/08/13 14:18:01;;;;;;;9.82;6.72;;;;;;;;;;4987628;28;20557;-76
2022/08/13 14:20:51;;;;;;;11.05;7.50;;;;;;;;;;4986087;28;20046;-76
2022/08/13 14:23:23;;;;;;;10.10;7.25;;;;;;;;;;4988174;28;20255;-78
2022/08/13 14:25:49;;;;;;;9.75;6.75;;;;;;;;;;4988536;28;20594;-76
2022/08/13 14:28:21;;;;;;;10.52;7.03;;;;;;;;;;4987305;28;20042;-77
2022/08/13 14:30:49;;;;;;;9.98;7.43;;;;;;;;;;4987151;28;20070;-77
2022/08/13 14:33:16;;;;;;;10.40;7.72;;;;;;;;;;4988575;28;20092;-75
2022/08/13 14:36:03;;;;;;;11.70;7.32;;;;;;;;;;4990607;28;20058;-76
2022/08/13 14:38:31;;;;;;;13.65;6.85;;;;;;;;;;4988133;28;20459;-76
2022/08/13 14:41:01;;;;;;;10.40;6.97;;;;;;;;;;4990892;28;20418;-76
2022/08/13 14:43:47;;;;;;;10.03;7.00;;;;;;;;;;4989782;28;20069;-76
2022/08/13 14:46:29;;;;;;;14.57;7.60;;;;;;;;;;5005084;28;20129;-76
2022/08/13 14:48:58;;;;;;;11.13;7.28;;;;;;;;;;4992016;28;20046;-76
2022/08/13 14:51:29;;;;;;;9.57;6.82;;;;;;;;;;4990218;28;20407;-76
2022/08/13 14:54:16;;;;;;;10.45;6.97;;;;;;;;;;4990388;28;20042;-76
2022/08/13 14:56:47;;;;;;;10.65;7.57;;;;;;;;;;4990716;28;20518;-74
2022/08/13 14:59:15;;;;;;;9.00;6.53;;;;;;;;;;4990944;28;20064;-76
2022/08/13 15:01:47;;;;;;;9.73;6.88;;;;;;;;;;4987911;28;20876;-76
2022/08/13 15:04:16;;;;;;;12.43;7.30;;;;;;;;;;4989771;28;20051;-75
2022/08/13 15:06:54;;;;;;;12.88;6.85;;;;;;;;;;4990530;28;20054;-76
2022/08/13 15:09:21;;;;;;;9.23;6.57;;;;;;;;;;4991075;28;20502;-76
2022/08/13 15:11:49;;;;;;;12.13;7.28;;;;;;;;;;4995644;28;20038;-76
2022/08/13 15:14:18;;;;;;;10.30;7.25;;;;;;;;;;5001060;28;20100;-76
2022/08/13 15:16:45;;;;;;;9.15;6.85;;;;;;;;;;5011341;28;20077;-76
2022/08/13 15:19:12;;;;;;;12.30;7.03;;;;;;;;;;5011127;28;20167;-75
2022/08/13 15:21:44;;;;;;;11.02;7.28;;;;;;;;;;5010604;28;20049;-77
2022/08/13 15:24:29;;;;;;;9.75;7.38;;;;;;;;;;5010158;28;20053;-77
2022/08/13 15:27:42;;;;;;;12.27;7.90;;;;;;;;;;5009551;28;20060;-78
2022/08/13 15:30:13;;;;;;;11.70;7.22;;;;;;;;;;5006862;28;20112;-76
2022/08/13 15:32:41;;;;;;;8.20;7.05;;;;;;;;;;5010009;28;20100;-77
2022/08/13 15:35:22;;;;;;;10.88;7.07;;;;;;;;;;5010933;28;20049;-77
2022/08/13 15:37:49;;;;;;;9.50;6.43;;;;;;;;;;5010321;28;20430;-76